Time;durP1;ratioP1;P1;durP2;ratioP2;P2;SDS_P1;SDS_P2;PMS_P1;PMS_P2;Temp;Humidity;BMP_temperature;BMP_pressure;BME280_temperature;BME280_humidity;BME280_pressure;Samples;Min_cycle;Max_cycle;Signal;HPM_P1;HPM_P2
2022/04/15 00:01:49;;;;;;;23.40;11.10;;;8.10;99.90;;;;;;5134131;27;20119;-50
2022/04/15 00:04:15;;;;;;;18.52;10.70;;;8.10;99.90;;;;;;5133672;27;20035;-49
2022/04/15 00:06:41;;;;;;;17.30;10.73;;;8.10;99.90;;;;;;5133890;27;20037;-50
2022/04/15 00:09:06;;;;;;;20.42;10.60;;;8.10;99.90;;;;;;5134254;27;20037;-47
2022/04/15 00:11:32;;;;;;;16.30;10.80;;;8.00;99.90;;;;;;5133936;27;20363;-48
2022/04/15 00:14:00;;;;;;;16.95;11.18;;;7.90;99.90;;;;;;5117225;27;20497;-47
2022/04/15 00:16:25;;;;;;;16.00;10.65;;;7.90;99.90;;;;;;5134048;27;20042;-47
2022/04/15 00:18:51;;;;;;;17.02;10.68;;;7.90;99.90;;;;;;5115108;27;20043;-47
2022/04/15 00:21:17;;;;;;;17.35;10.77;;;7.90;99.90;;;;;;5133673;27;20038;-47
2022/04/15 00:23:43;;;;;;;20.05;10.80;;;7.80;99.90;;;;;;5133836;27;20074;-48
2022/04/15 00:26:08;;;;;;;18.17;10.85;;;7.90;99.90;;;;;;5153364;27;20106;-44
2022/04/15 00:28:34;;;;;;;20.33;10.80;;;7.90;99.90;;;;;;5141021;27;20031;-47
2022/04/15 00:31:00;;;;;;;22.02;11.98;;;7.80;99.90;;;;;;5133686;27;20049;-47
2022/04/15 00:33:26;;;;;;;18.00;10.40;;;8.00;99.90;;;;;;5133084;27;20066;-46
2022/04/15 00:35:51;;;;;;;18.95;11.52;;;7.80;99.90;;;;;;5133488;27;20050;-49
2022/04/15 00:38:18;;;;;;;18.50;11.63;;;7.80;99.90;;;;;;5133684;27;20062;-49
2022/04/15 00:40:43;;;;;;;20.17;11.38;;;7.80;99.90;;;;;;5153003;27;20397;-48
2022/04/15 00:43:09;;;;;;;16.77;10.77;;;7.90;99.90;;;;;;5135583;27;20038;-49
2022/04/15 00:45:35;;;;;;;20.33;11.45;;;7.80;99.90;;;;;;5154200;27;20039;-49
2022/04/15 00:48:01;;;;;;;18.15;11.45;;;7.90;99.90;;;;;;5135535;27;20038;-46
2022/04/15 00:50:32;;;;;;;17.95;11.50;;;7.80;99.90;;;;;;5145521;27;20505;-45
2022/04/15 00:53:01;;;;;;;19.38;11.82;;;7.80;99.90;;;;;;5153274;27;20038;-46
2022/04/15 00:55:27;;;;;;;17.20;11.23;;;7.80;99.90;;;;;;5153886;27;20377;-44
2022/04/15 00:57:56;;;;;;;16.83;10.88;;;7.80;99.90;;;;;;5153822;27;20058;-46
2022/04/15 01:00:23;;;;;;;14.20;10.13;;;7.80;99.90;;;;;;5153821;27;20031;-47
2022/04/15 01:02:50;;;;;;;17.52;10.02;;;7.70;99.90;;;;;;5153375;27;20049;-50
2022/04/15 01:05:16;;;;;;;18.33;11.18;;;7.70;99.90;;;;;;5153291;27;20396;-48
2022/04/15 01:07:47;;;;;;;15.30;9.55;;;7.70;99.90;;;;;;5149411;27;20039;-49
2022/04/15 01:10:14;;;;;;;19.55;10.40;;;7.60;99.90;;;;;;5132934;27;20031;-47
2022/04/15 01:12:43;;;;;;;19.05;10.52;;;7.60;99.90;;;;;;5132522;27;20031;-48
2022/04/15 01:15:13;;;;;;;14.15;9.65;;;7.50;99.90;;;;;;5132854;27;20107;-47
2022/04/15 01:17:39;;;;;;;17.58;10.35;;;7.40;99.90;;;;;;5133264;27;20031;-48
2022/04/15 01:20:08;;;;;;;15.15;10.10;;;7.40;99.90;;;;;;5153679;27;20042;-46
2022/04/15 01:22:37;;;;;;;13.55;10.15;;;7.40;99.90;;;;;;5153320;27;20043;-49
2022/04/15 01:25:04;;;;;;;15.70;10.27;;;7.40;99.90;;;;;;5138367;27;20492;-46
2022/04/15 01:27:38;;;;;;;20.00;11.70;;;7.40;99.90;;;;;;5132645;27;20027;-48
2022/04/15 01:30:06;;;;;;;17.92;11.70;;;7.40;99.90;;;;;;5132427;27;20566;-50
2022/04/15 01:32:31;;;;;;;17.95;10.85;;;7.30;99.90;;;;;;5132421;27;20027;-50
2022/04/15 01:34:58;;;;;;;18.83;11.32;;;7.20;99.90;;;;;;5131942;27;20049;-46
2022/04/15 01:37:24;;;;;;;17.30;11.23;;;7.20;99.90;;;;;;5132288;27;20046;-45
2022/04/15 01:39:50;;;;;;;18.95;11.10;;;7.20;99.90;;;;;;5132501;27;20389;-45
2022/04/15 01:42:17;;;;;;;18.02;10.75;;;7.20;99.90;;;;;;5132281;27;20053;-47
2022/04/15 01:44:44;;;;;;;16.08;11.18;;;7.10;99.90;;;;;;5132166;27;20037;-48
2022/04/15 01:47:11;;;;;;;17.45;11.25;;;7.10;99.90;;;;;;5132480;27;20035;-47
2022/04/15 01:49:37;;;;;;;15.77;10.63;;;7.00;99.90;;;;;;5132159;27;20067;-49
2022/04/15 01:52:04;;;;;;;17.80;10.90;;;6.90;99.90;;;;;;5132217;27;20435;-48
2022/04/15 01:54:30;;;;;;;17.27;10.30;;;6.90;99.90;;;;;;5132231;27;20043;-47
2022/04/15 01:56:57;;;;;;;18.38;11.05;;;6.90;99.90;;;;;;5132048;27;20049;-44
2022/04/15 01:59:23;;;;;;;14.32;10.32;;;6.90;99.90;;;;;;5131952;27;20474;-48
2022/04/15 02:01:54;;;;;;;18.25;11.07;;;6.90;99.90;;;;;;5132083;27;20164;-49
2022/04/15 02:04:24;;;;;;;16.70;10.05;;;6.90;99.90;;;;;;5131639;27;20103;-50
2022/04/15 02:06:49;;;;;;;16.08;10.30;;;7.00;99.90;;;;;;5151966;27;20032;-46
2022/04/15 02:09:16;;;;;;;17.73;10.65;;;7.00;99.90;;;;;;5134172;27;20477;-46
2022/04/15 02:11:41;;;;;;;18.23;10.85;;;7.00;99.90;;;;;;5152588;27;20139;-48
2022/04/15 02:14:07;;;;;;;16.73;10.55;;;6.90;99.90;;;;;;5152439;27;20082;-49
2022/04/15 02:16:34;;;;;;;15.57;10.95;;;6.90;99.90;;;;;;5142665;27;20039;-47
2022/04/15 02:18:59;;;;;;;19.65;10.55;;;6.80;99.90;;;;;;5132067;27;20135;-49
2022/04/15 02:21:25;;;;;;;20.10;10.27;;;6.80;99.90;;;;;;5131966;27;20074;-48
2022/04/15 02:23:51;;;;;;;14.23;10.38;;;6.80;99.90;;;;;;5131842;27;20039;-48
2022/04/15 02:26:16;;;;;;;16.80;10.73;;;6.70;99.90;;;;;;5131813;27;20375;-47
2022/04/15 02:28:42;;;;;;;18.83;10.18;;;6.70;99.90;;;;;;5131710;27;20413;-48
2022/04/15 02:31:08;;;;;;;15.77;10.60;;;6.80;99.90;;;;;;5131725;28;20068;-47
2022/04/15 02:33:33;;;;;;;16.75;11.10;;;6.70;99.90;;;;;;5131324;27;20118;-47
2022/04/15 02:35:59;;;;;;;13.27;10.23;;;6.80;99.90;;;;;;5131843;27;20389;-47
2022/04/15 02:38:25;;;;;;;15.75;10.68;;;6.70;99.90;;;;;;5131734;27;20031;-49
2022/04/15 02:40:51;;;;;;;18.30;11.05;;;6.70;99.90;;;;;;5131784;27;20039;-46
2022/04/15 02:43:17;;;;;;;20.92;12.13;;;6.70;99.90;;;;;;5131333;27;20038;-47
2022/04/15 02:45:43;;;;;;;16.80;11.70;;;6.60;99.90;;;;;;5133411;27;20039;-46
2022/04/15 02:48:09;;;;;;;18.00;12.25;;;6.60;99.90;;;;;;5135786;27;20070;-48
2022/04/15 02:50:34;;;;;;;20.77;12.07;;;6.60;99.90;;;;;;5117065;27;20067;-47
2022/04/15 02:53:01;;;;;;;16.98;11.57;;;6.60;99.90;;;;;;5156391;27;20117;-46
2022/04/15 02:55:27;;;;;;;17.42;11.85;;;6.60;99.90;;;;;;5156133;27;20047;-48
2022/04/15 02:57:53;;;;;;;14.05;10.52;;;6.50;99.90;;;;;;5155934;27;20353;-46
2022/04/15 03:00:19;;;;;;;18.63;10.60;;;6.40;99.90;;;;;;5156402;27;20034;-52
2022/04/15 03:02:45;;;;;;;18.67;10.55;;;6.40;99.90;;;;;;5155967;27;20066;-45
2022/04/15 03:05:10;;;;;;;16.60;10.25;;;6.40;99.90;;;;;;5155737;27;20073;-47
2022/04/15 03:07:37;;;;;;;18.50;10.30;;;6.50;99.90;;;;;;5155993;27;20039;-47
2022/04/15 03:10:04;;;;;;;14.82;9.65;;;6.40;99.90;;;;;;5155935;27;20050;-47
2022/04/15 03:12:36;;;;;;;14.98;10.15;;;6.60;99.90;;;;;;5155942;27;20076;-48
2022/04/15 03:15:04;;;;;;;15.13;9.63;;;6.60;99.90;;;;;;5155740;27;20443;-47
2022/04/15 03:17:30;;;;;;;17.73;10.27;;;6.60;99.90;;;;;;5155833;27;20086;-46
2022/04/15 03:19:55;;;;;;;16.10;9.40;;;6.70;99.90;;;;;;5156058;27;20030;-50
2022/04/15 03:22:21;;;;;;;17.42;9.38;;;6.60;99.90;;;;;;5155504;27;20156;-45
2022/04/15 03:24:50;;;;;;;16.15;9.85;;;6.80;99.90;;;;;;5155710;27;20476;-48
2022/04/15 03:27:15;;;;;;;13.43;8.65;;;6.80;99.90;;;;;;5155548;27;20027;-46
2022/04/15 03:29:43;;;;;;;13.23;8.70;;;6.80;99.90;;;;;;5155242;27;20168;-48
2022/04/15 03:32:09;;;;;;;13.65;9.32;;;6.90;99.90;;;;;;5155584;27;20026;-49
2022/04/15 03:34:36;;;;;;;16.40;9.45;;;6.90;99.90;;;;;;5155014;27;20072;-49
2022/04/15 03:37:03;;;;;;;16.10;8.95;;;6.90;99.90;;;;;;5155402;27;20035;-49
2022/04/15 03:39:29;;;;;;;13.73;9.30;;;6.90;99.90;;;;;;5155198;27;20114;-47
2022/04/15 03:41:54;;;;;;;13.73;8.90;;;7.10;99.90;;;;;;5155127;27;20560;-45
2022/04/15 03:44:20;;;;;;;14.15;9.07;;;7.10;99.90;;;;;;5155122;27;20038;-48
2022/04/15 03:46:46;;;;;;;15.25;8.95;;;7.10;99.90;;;;;;5155076;27;20042;-50
2022/04/15 03:49:11;;;;;;;13.18;8.88;;;7.20;99.90;;;;;;5155021;27;20046;-45
2022/04/15 03:51:37;;;;;;;14.13;8.82;;;7.20;99.90;;;;;;5155294;27;20038;-48
2022/04/15 03:54:03;;;;;;;12.35;8.77;;;7.20;99.90;;;;;;5151180;27;20126;-50
2022/04/15 03:56:29;;;;;;;15.38;9.00;;;7.20;99.90;;;;;;5134170;27;20138;-47
2022/04/15 03:58:55;;;;;;;12.52;8.93;;;7.20;99.90;;;;;;5134207;27;20109;-47
2022/04/15 04:01:21;;;;;;;13.55;8.95;;;7.20;99.90;;;;;;5134393;27;20088;-48
2022/04/15 04:03:46;;;;;;;13.70;8.95;;;7.40;99.90;;;;;;5115182;27;20114;-46
2022/04/15 04:06:12;;;;;;;14.30;9.18;;;7.30;99.90;;;;;;5134168;27;20046;-47
2022/04/15 04:08:37;;;;;;;13.77;8.52;;;7.40;99.90;;;;;;5133946;27;20084;-47
2022/04/15 04:11:03;;;;;;;15.10;9.80;;;7.40;99.90;;;;;;5134009;27;20076;-50
2022/04/15 04:13:29;;;;;;;16.67;10.02;;;7.40;99.90;;;;;;5146171;27;20458;-48
2022/04/15 04:15:55;;;;;;;17.67;9.77;;;7.50;99.90;;;;;;5143304;27;20455;-45
2022/04/15 04:18:21;;;;;;;13.65;9.10;;;7.50;99.90;;;;;;5116423;27;20041;-47
2022/04/15 04:20:48;;;;;;;13.55;8.88;;;7.50;99.90;;;;;;5135187;27;20409;-49
2022/04/15 04:23:14;;;;;;;13.80;8.52;;;7.40;99.90;;;;;;5133759;27;20088;-47
2022/04/15 04:25:40;;;;;;;15.52;9.02;;;7.40;99.90;;;;;;5133587;27;20035;-44
2022/04/15 04:28:06;;;;;;;12.30;8.75;;;7.40;99.90;;;;;;5133645;27;20033;-47
2022/04/15 04:30:31;;;;;;;14.80;9.15;;;7.40;99.90;;;;;;5133576;27;20609;-49
2022/04/15 04:32:59;;;;;;;13.02;8.77;;;7.40;99.90;;;;;;5133774;27;20073;-45
2022/04/15 04:35:25;;;;;;;12.18;9.05;;;7.40;99.90;;;;;;5133104;27;20405;-50
2022/04/15 04:37:51;;;;;;;13.27;8.90;;;7.50;99.90;;;;;;5133597;27;20043;-48
2022/04/15 04:40:17;;;;;;;12.48;8.63;;;7.50;99.90;;;;;;5114993;27;20057;-47
2022/04/15 04:42:47;;;;;;;13.93;9.13;;;7.40;99.90;;;;;;5134095;27;20046;-46
2022/04/15 04:45:12;;;;;;;15.18;9.10;;;7.40;99.90;;;;;;5133465;27;20030;-48
2022/04/15 04:47:44;;;;;;;12.32;9.23;;;7.50;99.90;;;;;;5133616;27;20469;-49
2022/04/15 04:50:10;;;;;;;14.43;8.73;;;7.50;99.90;;;;;;5133149;27;20042;-45
2022/04/15 04:52:37;;;;;;;15.32;9.30;;;7.50;99.90;;;;;;5133290;27;20030;-45
2022/04/15 04:55:04;;;;;;;12.35;9.30;;;7.50;99.90;;;;;;5133176;27;20084;-45
2022/04/15 04:57:30;;;;;;;15.25;8.88;;;7.40;99.90;;;;;;5133117;27;20035;-45
2022/04/15 04:59:56;;;;;;;12.23;8.48;;;7.50;99.90;;;;;;5133166;27;20416;-46
2022/04/15 05:02:22;;;;;;;13.13;8.82;;;7.50;99.90;;;;;;5132934;27;20106;-49
2022/04/15 05:04:48;;;;;;;16.23;9.10;;;7.50;99.90;;;;;;5132561;27;20092;-48
2022/04/15 05:07:14;;;;;;;14.95;8.90;;;7.50;99.90;;;;;;5132533;27;20035;-50
2022/04/15 05:09:42;;;;;;;11.85;9.02;;;7.50;99.90;;;;;;5132588;27;20048;-46
2022/04/15 05:12:10;;;;;;;13.07;9.23;;;7.50;99.90;;;;;;5132883;27;20035;-52
2022/04/15 05:14:36;;;;;;;13.85;8.90;;;7.60;99.90;;;;;;5132774;27;20082;-46
2022/04/15 05:17:02;;;;;;;18.42;9.13;;;7.60;99.90;;;;;;5132834;27;20047;-46
2022/04/15 05:19:28;;;;;;;12.88;8.70;;;7.50;99.90;;;;;;5113981;27;20038;-46
2022/04/15 05:21:54;;;;;;;14.32;9.27;;;7.50;99.90;;;;;;5133290;27;20389;-47
2022/04/15 05:24:19;;;;;;;12.07;9.00;;;7.60;99.90;;;;;;5132610;27;20465;-46
2022/04/15 05:26:45;;;;;;;13.50;8.77;;;7.50;99.90;;;;;;5132816;27;20035;-49
2022/04/15 05:29:11;;;;;;;13.98;9.15;;;7.60;99.90;;;;;;5132787;27;20042;-46
2022/04/15 05:31:36;;;;;;;18.23;9.43;;;7.70;99.90;;;;;;5132443;27;20039;-48
2022/04/15 05:34:03;;;;;;;15.52;8.65;;;7.70;99.90;;;;;;5132043;27;20035;-46
2022/04/15 05:36:29;;;;;;;12.57;8.57;;;7.70;99.90;;;;;;5132510;27;20470;-47
2022/04/15 05:38:54;;;;;;;14.82;8.20;;;7.60;99.90;;;;;;5132533;27;20039;-46
2022/04/15 05:41:20;;;;;;;14.50;8.85;;;7.70;99.90;;;;;;5114123;27;20061;-46
2022/04/15 05:43:46;;;;;;;13.63;8.68;;;7.70;99.90;;;;;;5132295;27;20073;-47
2022/04/15 05:46:12;;;;;;;15.20;8.38;;;7.70;99.90;;;;;;5114150;27;20494;-46
2022/04/15 05:48:38;;;;;;;17.02;11.20;;;7.70;99.90;;;;;;5132061;27;20121;-46
2022/04/15 05:51:04;;;;;;;19.42;12.38;;;7.80;99.90;;;;;;5145276;27;20047;-47
2022/04/15 05:53:30;;;;;;;26.48;13.50;;;7.80;99.90;;;;;;5152942;27;20035;-46
2022/04/15 05:55:57;;;;;;;28.17;13.75;;;7.80;99.90;;;;;;5153046;27;20042;-45
2022/04/15 05:58:26;;;;;;;27.95;15.02;;;7.70;99.90;;;;;;5152859;27;20039;-45
2022/04/15 06:00:52;;;;;;;25.83;13.60;;;7.80;99.90;;;;;;5152661;27;20500;-47
2022/04/15 06:03:20;;;;;;;21.73;12.43;;;7.80;99.90;;;;;;5152349;27;20045;-47
2022/04/15 06:05:47;;;;;;;17.55;10.07;;;7.80;99.90;;;;;;5152370;27;20076;-46
2022/04/15 06:08:13;;;;;;;17.70;9.85;;;7.80;99.90;;;;;;5152731;27;20122;-46
2022/04/15 06:10:39;;;;;;;14.07;9.57;;;8.00;99.90;;;;;;5152657;27;20092;-48
2022/04/15 06:13:09;;;;;;;16.65;9.23;;;7.80;99.90;;;;;;5136406;27;20035;-48
2022/04/15 06:15:36;;;;;;;14.27;9.70;;;8.00;99.90;;;;;;5131779;27;20409;-45
2022/04/15 06:18:02;;;;;;;17.13;8.93;;;8.00;99.90;;;;;;5131782;27;20477;-48
2022/04/15 06:20:29;;;;;;;15.23;8.73;;;7.90;99.90;;;;;;5135073;27;20071;-47
2022/04/15 06:22:56;;;;;;;17.60;9.68;;;8.10;99.90;;;;;;5136046;27;20035;-46
2022/04/15 06:25:22;;;;;;;20.58;9.35;;;8.00;99.90;;;;;;5136266;27;20041;-46
2022/04/15 06:27:49;;;;;;;18.17;10.80;;;8.00;99.90;;;;;;5136185;27;20031;-47
2022/04/15 06:30:15;;;;;;;18.92;10.13;;;8.10;99.90;;;;;;5136005;27;20530;-48
2022/04/15 06:32:41;;;;;;;18.98;10.95;;;8.10;99.90;;;;;;5135882;27;20047;-47
2022/04/15 06:35:07;;;;;;;17.67;10.70;;;8.10;99.90;;;;;;5154937;27;20068;-44
2022/04/15 06:37:33;;;;;;;19.40;10.77;;;8.10;99.90;;;;;;5156497;27;20460;-48
2022/04/15 06:39:59;;;;;;;15.93;10.13;;;8.10;99.90;;;;;;5156428;27;20476;-47
2022/04/15 06:42:28;;;;;;;20.15;11.40;;;8.20;99.90;;;;;;5156704;27;20074;-47
2022/04/15 06:44:54;;;;;;;15.57;11.07;;;8.20;99.90;;;;;;5156481;27;20046;-48
2022/04/15 06:47:20;;;;;;;17.45;11.27;;;8.10;99.90;;;;;;5137900;27;20043;-50
2022/04/15 06:49:46;;;;;;;16.23;11.13;;;8.20;99.90;;;;;;5156328;27;20488;-45
2022/04/15 06:52:15;;;;;;;14.55;11.15;;;8.20;99.90;;;;;;5156276;27;20054;-47
2022/04/15 06:54:41;;;;;;;17.40;10.70;;;8.30;99.90;;;;;;5156053;27;20118;-48
2022/04/15 06:57:07;;;;;;;16.48;10.13;;;8.30;99.90;;;;;;5156155;27;20043;-47
2022/04/15 06:59:33;;;;;;;14.00;8.88;;;8.20;99.90;;;;;;5156176;27;20038;-48
2022/04/15 07:02:01;;;;;;;11.73;9.05;;;8.20;99.90;;;;;;5156145;27;20043;-49
2022/04/15 07:04:27;;;;;;;12.25;8.85;;;8.20;99.90;;;;;;5155722;27;20183;-50
2022/04/15 07:06:54;;;;;;;12.75;8.10;;;8.30;99.90;;;;;;5156079;27;20042;-46
2022/04/15 07:09:20;;;;;;;11.68;7.60;;;8.30;99.90;;;;;;5155944;27;20476;-47
2022/04/15 07:11:45;;;;;;;11.13;7.95;;;8.40;99.90;;;;;;5155942;27;20044;-49
2022/04/15 07:14:11;;;;;;;11.18;7.35;;;8.30;99.90;;;;;;5155328;27;20103;-46
2022/04/15 07:16:37;;;;;;;9.65;6.82;;;8.40;99.90;;;;;;5155648;27;20044;-47
2022/04/15 07:19:04;;;;;;;11.80;6.93;;;8.60;99.90;;;;;;5155909;27;20035;-46
2022/04/15 07:21:38;;;;;;;10.55;6.45;;;8.50;99.90;;;;;;5155908;27;20867;-46
2022/04/15 07:24:05;;;;;;;9.88;5.93;;;8.50;99.90;;;;;;5155600;27;20046;-47
2022/04/15 07:26:31;;;;;;;9.88;5.82;;;8.50;99.90;;;;;;5142761;27;20351;-46
2022/04/15 07:28:57;;;;;;;10.48;5.88;;;8.60;99.90;;;;;;5143071;27;20023;-46
2022/04/15 07:31:24;;;;;;;8.05;5.40;;;8.70;99.90;;;;;;5142047;27;20060;-49
2022/04/15 07:33:50;;;;;;;12.13;4.60;;;8.70;99.90;;;;;;5124447;27;20046;-44
2022/04/15 07:36:42;;;;;;;7.03;4.28;;;8.70;99.90;;;;;;5142680;27;20419;-47
2022/04/15 07:39:10;;;;;;;7.03;4.00;;;8.70;99.90;;;;;;5143493;27;20050;-45
2022/04/15 07:41:37;;;;;;;6.97;4.07;;;8.70;99.90;;;;;;5138661;27;20039;-48
2022/04/15 07:44:10;;;;;;;7.07;4.20;;;8.60;99.90;;;;;;5131604;27;21464;-48
2022/04/15 07:46:37;;;;;;;5.78;4.28;;;8.70;99.90;;;;;;5133957;27;20104;-48
2022/04/15 07:49:03;;;;;;;6.75;4.82;;;8.70;99.90;;;;;;5133769;27;20478;-49
2022/04/15 07:51:30;;;;;;;8.82;5.38;;;8.70;99.90;;;;;;5133479;27;20113;-49
2022/04/15 07:53:56;;;;;;;9.07;4.95;;;8.50;99.90;;;;;;5130863;27;20027;-48
2022/04/15 07:56:22;;;;;;;8.60;5.47;;;8.50;99.90;;;;;;5130867;27;20092;-50
2022/04/15 07:58:48;;;;;;;7.00;5.20;;;8.60;99.90;;;;;;5137084;27;20046;-48
2022/04/15 08:01:14;;;;;;;7.13;5.05;;;8.70;99.90;;;;;;5134359;27;20039;-48
2022/04/15 08:03:40;;;;;;;10.23;5.55;;;8.60;99.90;;;;;;5130941;27;20405;-48
2022/04/15 08:06:05;;;;;;;7.60;5.55;;;8.50;99.90;;;;;;5135163;27;20070;-48
2022/04/15 08:08:31;;;;;;;8.90;5.43;;;8.70;99.90;;;;;;5121539;27;20076;-48
2022/04/15 08:10:57;;;;;;;8.18;5.13;;;8.60;99.90;;;;;;5133242;27;20085;-46
2022/04/15 08:13:24;;;;;;;6.95;5.10;;;8.60;99.90;;;;;;5135183;27;20043;-49
2022/04/15 08:15:53;;;;;;;8.27;5.07;;;8.60;99.90;;;;;;5131874;27;20059;-45
2022/04/15 08:18:19;;;;;;;7.93;4.82;;;8.60;99.90;;;;;;5130490;27;20047;-46
2022/04/15 08:20:45;;;;;;;6.15;4.38;;;8.70;99.90;;;;;;5132975;27;20038;-44
2022/04/15 08:23:11;;;;;;;7.95;4.35;;;8.60;99.90;;;;;;5134566;27;20375;-46
2022/04/15 08:25:37;;;;;;;7.68;4.25;;;8.60;99.90;;;;;;5131880;27;20031;-45
2022/04/15 08:28:04;;;;;;;9.07;4.00;;;8.60;99.90;;;;;;5133200;27;20028;-46
2022/04/15 08:30:33;;;;;;;6.13;4.13;;;8.60;99.90;;;;;;5132857;27;20064;-48
2022/04/15 08:32:59;;;;;;;6.72;3.90;;;8.60;99.90;;;;;;5132739;27;20043;-46
2022/04/15 08:35:25;;;;;;;8.13;3.95;;;8.70;99.90;;;;;;5134278;27;20383;-47
2022/04/15 08:37:50;;;;;;;5.97;3.75;;;8.70;99.90;;;;;;5131156;27;20061;-48
2022/04/15 08:40:16;;;;;;;9.18;3.75;;;8.70;99.90;;;;;;5135747;27;20042;-48
2022/04/15 08:42:43;;;;;;;5.80;3.63;;;8.70;99.90;;;;;;5131237;27;20035;-47
2022/04/15 08:45:10;;;;;;;8.85;3.85;;;8.70;99.90;;;;;;5130555;27;20050;-45
2022/04/15 08:47:40;;;;;;;6.68;3.97;;;8.70;99.90;;;;;;5129234;27;20049;-45
2022/04/15 08:50:10;;;;;;;7.15;4.20;;;8.60;99.90;;;;;;5131647;27;20080;-45
2022/04/15 08:52:36;;;;;;;8.77;3.65;;;8.70;99.90;;;;;;5131581;27;20034;-47
2022/04/15 08:55:03;;;;;;;7.55;4.30;;;8.70;99.90;;;;;;5130812;27;20158;-45
2022/04/15 08:57:29;;;;;;;7.85;4.43;;;8.60;99.90;;;;;;5129406;27;20031;-46
2022/04/15 08:59:55;;;;;;;8.40;4.40;;;8.50;99.90;;;;;;5130372;27;20042;-47
2022/04/15 09:02:33;;;;;;;5.15;3.75;;;8.50;99.90;;;;;;5133130;27;20026;-49
2022/04/15 09:04:59;;;;;;;7.60;4.00;;;8.60;99.90;;;;;;5130616;27;20053;-47
2022/04/15 09:07:29;;;;;;;7.18;4.13;;;8.70;99.90;;;;;;5131068;27;20038;-47
2022/04/15 09:10:00;;;;;;;5.22;4.03;;;8.70;99.90;;;;;;5134690;27;20038;-45
2022/04/15 09:12:30;;;;;;;8.20;4.20;;;8.60;99.90;;;;;;5131498;27;20393;-47
2022/04/15 09:15:16;;;;;;;10.30;5.30;;;8.70;99.90;;;;;;5131352;27;20059;-48
2022/04/15 09:17:46;;;;;;;8.88;5.20;;;8.70;99.90;;;;;;5131630;27;20063;-47
2022/04/15 09:20:12;;;;;;;11.52;6.20;;;8.80;99.90;;;;;;5140259;27;20034;-49
2022/04/15 09:22:38;;;;;;;11.30;6.85;;;8.80;99.90;;;;;;5139869;27;20054;-46
2022/04/15 09:25:05;;;;;;;11.10;7.13;;;8.80;99.90;;;;;;5130545;27;20072;-44
2022/04/15 09:27:30;;;;;;;13.48;7.57;;;8.90;99.90;;;;;;5130741;27;20028;-44
2022/04/15 09:29:56;;;;;;;13.32;8.13;;;8.90;99.90;;;;;;5132386;27;20035;-46
2022/04/15 09:32:24;;;;;;;16.70;8.55;;;8.90;99.90;;;;;;5132342;27;20110;-49
2022/04/15 09:34:56;;;;;;;13.68;8.32;;;9.00;99.90;;;;;;5132134;27;20043;-46
2022/04/15 09:37:27;;;;;;;14.93;8.90;;;9.10;99.90;;;;;;5136888;27;20506;-43
2022/04/15 09:40:08;;;;;;;15.85;8.75;;;9.00;99.90;;;;;;5153025;27;20121;-49
2022/04/15 09:42:35;;;;;;;13.23;8.90;;;9.00;99.90;;;;;;5152929;27;20039;-45
2022/04/15 09:45:19;;;;;;;13.80;8.35;;;9.00;99.90;;;;;;5152972;27;20114;-50
2022/04/15 09:47:52;;;;;;;;;;;9.10;99.90;;;;;;5153403;27;20039;-46
2022/04/15 09:50:37;;;;;;;11.88;8.20;;;9.10;99.90;;;;;;5152618;27;19922;-47
2022/04/15 09:53:18;;;;;;;14.02;8.23;;;9.20;99.90;;;;;;5152384;27;20409;-47
2022/04/15 09:55:46;;;;;;;15.05;8.82;;;9.20;99.90;;;;;;5152095;27;20049;-44
2022/04/15 09:58:16;;;;;;;12.93;8.73;;;9.20;99.90;;;;;;5152461;27;20034;-46
2022/04/15 10:00:47;;;;;;;13.38;9.27;;;9.40;99.90;;;;;;5152341;27;20046;-45
2022/04/15 10:03:18;;;;;;;14.95;9.60;;;9.20;99.90;;;;;;5152349;27;20377;-44
2022/04/15 10:05:45;;;;;;;13.23;9.30;;;9.30;99.90;;;;;;5152620;27;20034;-47
2022/04/15 10:08:11;;;;;;;13.82;8.70;;;9.50;99.90;;;;;;5152816;27;20404;-46
2022/04/15 10:10:37;;;;;;;14.40;8.38;;;9.60;99.90;;;;;;5152726;27;20473;-48
2022/04/15 10:13:04;;;;;;;17.30;9.10;;;9.60;99.90;;;;;;5152666;27;20035;-44
2022/04/15 10:15:33;;;;;;;15.10;9.15;;;9.70;99.90;;;;;;5151981;27;20131;-49
2022/04/15 10:18:00;;;;;;;15.68;9.90;;;9.80;99.90;;;;;;5152614;27;20049;-47
2022/04/15 10:20:31;;;;;;;16.13;10.10;;;9.90;99.90;;;;;;5152705;27;20119;-46
2022/04/15 10:23:08;;;;;;;17.08;10.40;;;9.90;99.90;;;;;;5134054;27;20054;-48
2022/04/15 10:25:36;;;;;;;17.55;9.52;;;9.90;99.90;;;;;;5152700;27;20047;-46
2022/04/15 10:28:13;;;;;;;15.55;8.90;;;9.90;99.90;;;;;;5152380;27;20370;-45
2022/04/15 10:30:51;;;;;;;13.93;9.05;;;9.90;99.90;;;;;;5152573;27;20038;-50
2022/04/15 10:33:33;;;;;;;19.23;10.00;;;9.90;99.90;;;;;;5134148;27;20117;-46
2022/04/15 10:36:24;;;;;;;15.82;9.93;;;9.90;99.90;;;;;;5151938;27;20038;-45
2022/04/15 10:39:02;;;;;;;16.42;9.07;;;10.00;99.90;;;;;;5121390;28;20058;-45
2022/04/15 10:41:29;;;;;;;16.30;9.05;;;10.00;99.90;;;;;;5135334;27;20043;-45
2022/04/15 10:43:57;;;;;;;17.38;8.60;;;10.20;99.90;;;;;;5136869;27;20122;-48
2022/04/15 10:46:32;;;;;;;15.50;8.48;;;10.20;99.90;;;;;;5134070;27;20137;-45
2022/04/15 10:48:59;;;;;;;15.27;8.90;;;10.30;99.90;;;;;;5132085;27;20140;-48
2022/04/15 10:51:30;;;;;;;15.65;9.10;;;10.30;99.90;;;;;;5132590;27;20074;-45
2022/04/15 10:54:31;;;;;;;13.98;8.70;;;10.30;99.90;;;;;;5132618;27;20130;-46
2022/04/15 10:57:03;;;;;;;14.32;8.48;;;10.30;99.90;;;;;;5128972;27;20035;-52
2022/04/15 11:02:21;;;;;;;14.00;8.38;;;10.40;99.90;;;;;;5129941;27;20735;-48
2022/04/15 11:04:52;;;;;;;15.07;8.73;;;10.40;99.90;;;;;;5114254;27;20051;-45
2022/04/15 11:07:29;;;;;;;15.57;8.43;;;10.50;99.90;;;;;;5131991;27;20034;-47
2022/04/15 11:09:57;;;;;;;14.93;8.40;;;10.50;99.90;;;;;;5119477;27;20035;-46
2022/04/15 11:12:49;;;;;;;17.67;11.07;;;10.50;99.90;;;;;;5134286;27;20041;-47
2022/04/15 11:15:35;;;;;;;55.22;42.45;;;10.60;99.90;;;;;;5130968;27;20079;-46
2022/04/15 11:18:14;;;;;;;35.42;24.05;;;10.60;99.90;;;;;;5133739;27;20054;-44
2022/04/15 11:20:44;;;;;;;18.25;11.52;;;10.60;99.90;;;;;;5133868;27;20130;-42
2022/04/15 11:23:10;;;;;;;24.35;17.75;;;10.60;99.90;;;;;;5132386;27;20039;-43
2022/04/15 11:25:44;;;;;;;16.80;10.32;;;10.70;99.90;;;;;;5135872;27;20050;-45
2022/04/15 11:28:11;;;;;;;16.45;10.90;;;10.80;99.90;;;;;;5132784;27;20088;-48
2022/04/15 11:30:37;;;;;;;13.85;8.63;;;10.90;99.90;;;;;;5132426;27;20462;-48
2022/04/15 11:33:07;;;;;;;12.48;8.15;;;11.00;99.90;;;;;;5133454;27;20047;-44
2022/04/15 11:35:35;;;;;;;10.82;6.68;;;11.00;99.90;;;;;;5133281;27;20498;-47
2022/04/15 11:38:09;;;;;;;10.18;6.15;;;11.20;99.90;;;;;;5132656;27;20110;-45
2022/04/15 11:40:36;;;;;;;12.05;6.10;;;11.20;99.90;;;;;;5132767;27;20342;-43
2022/04/15 11:43:06;;;;;;;13.05;6.55;;;11.10;99.90;;;;;;5133714;27;20047;-43
2022/04/15 11:45:36;;;;;;;10.93;5.95;;;11.30;99.90;;;;;;5134449;27;20051;-46
2022/04/15 11:48:20;;;;;;;10.38;6.47;;;11.40;99.90;;;;;;5130901;27;20072;-43
2022/04/15 11:50:46;;;;;;;10.73;6.53;;;11.60;99.90;;;;;;5132617;27;20034;-46
2022/04/15 11:53:13;;;;;;;15.93;6.07;;;11.70;99.90;;;;;;5132536;27;20122;-44
2022/04/15 11:55:51;;;;;;;10.18;6.43;;;11.90;99.90;;;;;;5131719;27;20367;-47
2022/04/15 11:58:17;;;;;;;10.05;5.47;;;11.80;99.90;;;;;;5135900;27;20034;-47
2022/04/15 12:00:50;;;;;;;14.23;6.00;;;11.80;99.90;;;;;;5135018;27;20046;-52
2022/04/15 12:03:16;;;;;;;10.38;5.60;;;11.80;99.90;;;;;;5136892;27;20430;-48
2022/04/15 12:05:41;;;;;;;12.65;5.97;;;11.70;99.90;;;;;;5132676;27;20109;-46
2022/04/15 12:08:10;;;;;;;13.65;6.68;;;11.70;99.90;;;;;;5136187;27;20107;-46
2022/04/15 12:10:42;;;;;;;11.40;6.60;;;11.70;99.90;;;;;;5134130;27;20031;-44
2022/04/15 12:13:08;;;;;;;11.13;6.65;;;11.80;99.90;;;;;;5131333;27;20183;-45
2022/04/15 12:15:34;;;;;;;10.18;5.70;;;11.90;99.90;;;;;;5131158;27;20141;-46
2022/04/15 12:18:02;;;;;;;12.10;6.60;;;11.70;99.90;;;;;;5131761;27;20039;-49
2022/04/15 12:20:29;;;;;;;11.27;5.45;;;11.80;99.90;;;;;;5132058;27;20397;-51
2022/04/15 12:22:57;;;;;;;12.13;6.32;;;11.80;99.90;;;;;;5134734;27;20314;-48
2022/04/15 12:25:23;;;;;;;10.40;5.68;;;11.60;99.90;;;;;;5136425;27;20482;-52
2022/04/15 12:27:50;;;;;;;14.93;5.82;;;11.70;99.90;;;;;;5130593;27;20050;-45
2022/04/15 12:30:35;;;;;;;9.43;5.40;;;11.70;99.90;;;;;;5134386;27;20034;-45
2022/04/15 12:33:13;;;;;;;10.23;6.00;;;11.80;99.90;;;;;;5131431;27;20063;-46
2022/04/15 12:35:57;;;;;;;9.23;5.78;;;11.90;99.90;;;;;;5132160;27;20042;-47
2022/04/15 12:38:22;;;;;;;8.90;5.03;;;11.80;99.90;;;;;;5130958;27;20064;-48
2022/04/15 12:40:48;;;;;;;9.50;5.70;;;11.90;99.90;;;;;;5131114;27;20027;-46
2022/04/15 12:43:14;;;;;;;9.65;5.80;;;11.80;99.90;;;;;;5132451;27;20444;-44
2022/04/15 12:45:53;;;;;;;11.35;6.05;;;11.90;99.90;;;;;;5131640;27;20031;-46
2022/04/15 12:48:23;;;;;;;10.10;5.50;;;12.00;99.90;;;;;;5131518;27;20119;-46
2022/04/15 12:50:58;;;;;;;10.95;6.03;;;11.90;99.90;;;;;;5133071;27;20042;-47